createdAt,value
2023-05-06T00:01:46.300Z,8.11
2023-05-06T00:04:13.374Z,8.14
2023-05-06T00:06:41.868Z,8.14
2023-05-06T00:09:08.657Z,8.08
2023-05-06T00:11:35.474Z,8.07
2023-05-06T00:14:02.252Z,8.05
2023-05-06T00:16:29.119Z,8.02
2023-05-06T00:18:55.949Z,7.98
2023-05-06T00:21:22.723Z,7.91
2023-05-06T00:23:49.447Z,7.84
2023-05-06T00:26:16.352Z,7.88
2023-05-06T00:28:43.121Z,7.87
2023-05-06T00:31:10.017Z,7.80
2023-05-06T00:33:37.057Z,7.75
2023-05-06T00:36:04.153Z,7.72
2023-05-06T00:38:31.054Z,7.72
2023-05-06T00:40:57.899Z,7.69
2023-05-06T00:43:25.257Z,7.67
2023-05-06T00:45:52.154Z,7.76
2023-05-06T00:48:19.063Z,7.87
2023-05-06T00:50:45.833Z,7.90
2023-05-06T00:53:12.713Z,7.89
2023-05-06T00:55:39.856Z,7.90
2023-05-06T00:58:06.704Z,7.88
2023-05-06T01:00:33.653Z,7.84
2023-05-06T01:03:02.737Z,7.82
2023-05-06T01:05:34.418Z,7.89
2023-05-06T01:08:26.429Z,7.96
2023-05-06T01:11:24.332Z,7.95
2023-05-06T01:14:00.155Z,7.97
2023-05-06T01:16:32.418Z,7.97
2023-05-06T01:18:59.429Z,7.94
2023-05-06T01:21:26.809Z,7.94
2023-05-06T01:23:58.409Z,7.94
2023-05-06T01:26:26.519Z,8.00
2023-05-06T01:28:54.209Z,8.00
2023-05-06T01:31:30.342Z,7.91
2023-05-06T01:34:21.290Z,7.81
2023-05-06T01:37:06.841Z,7.78
2023-05-06T01:39:33.701Z,7.77
2023-05-06T01:42:00.897Z,7.75
2023-05-06T01:44:29.477Z,7.73
2023-05-06T01:46:56.370Z,7.71
2023-05-06T01:49:23.713Z,7.76
2023-05-06T01:51:51.773Z,7.79
2023-05-06T01:54:18.683Z,7.70
2023-05-06T01:56:46.743Z,7.60
2023-05-06T01:59:15.000Z,7.50
2023-05-06T02:01:41.832Z,7.39
2023-05-06T02:04:08.927Z,7.23
2023-05-06T02:06:36.201Z,7.11
2023-05-06T02:09:04.414Z,7.13
2023-05-06T02:11:34.082Z,7.16
2023-05-06T02:14:06.511Z,7.13
2023-05-06T02:16:34.288Z,7.08
2023-05-06T02:19:01.186Z,7.04
2023-05-06T02:21:28.242Z,6.99
2023-05-06T02:23:55.102Z,6.95
2023-05-06T02:26:23.173Z,6.92
2023-05-06T02:28:50.129Z,7.01
2023-05-06T02:31:17.062Z,7.13
2023-05-06T02:33:45.056Z,7.16
2023-05-06T02:36:11.910Z,7.16
2023-05-06T02:38:38.749Z,7.15
2023-05-06T02:41:05.564Z,7.15
2023-05-06T02:43:33.026Z,7.16
2023-05-06T02:46:00.058Z,7.16
2023-05-06T02:48:26.998Z,7.16
2023-05-06T02:50:53.890Z,7.16
2023-05-06T02:53:20.820Z,7.24
2023-05-06T02:55:47.773Z,7.28
2023-05-06T02:58:14.940Z,7.26
2023-05-06T03:00:42.062Z,7.19
2023-05-06T03:03:09.977Z,7.15
2023-05-06T03:05:36.881Z,7.11
2023-05-06T03:08:05.397Z,7.03
2023-05-06T03:10:32.682Z,6.96
2023-05-06T03:13:00.318Z,6.91
2023-05-06T03:15:28.398Z,6.87
2023-05-06T03:17:55.868Z,6.84
2023-05-06T03:20:23.757Z,6.89
2023-05-06T03:22:52.595Z,6.97
2023-05-06T03:25:20.078Z,6.94
2023-05-06T03:27:47.394Z,6.87
2023-05-06T03:30:18.210Z,6.84
2023-05-06T03:32:45.529Z,6.84
2023-05-06T03:35:15.143Z,6.84
2023-05-06T03:37:43.358Z,6.84
2023-05-06T03:40:10.568Z,6.89
2023-05-06T03:42:37.947Z,6.94
2023-05-06T03:45:06.660Z,6.97
2023-05-06T03:47:33.747Z,7.10
2023-05-06T03:50:01.824Z,7.18
2023-05-06T03:52:30.095Z,7.14
2023-05-06T03:54:58.489Z,7.16
2023-05-06T03:57:27.814Z,7.16
2023-05-06T03:59:56.231Z,7.17
2023-05-06T04:02:23.873Z,7.17
2023-05-06T04:04:51.502Z,7.19
2023-05-06T04:07:18.339Z,7.26
2023-05-06T04:09:45.263Z,7.38
2023-05-06T04:12:12.120Z,7.46
2023-05-06T04:14:39.717Z,7.61
2023-05-06T04:17:07.991Z,7.81
2023-05-06T04:19:34.966Z,7.97
2023-05-06T04:22:02.595Z,8.02
2023-05-06T04:24:31.425Z,8.02
2023-05-06T04:26:59.357Z,8.02
2023-05-06T04:29:27.144Z,8.00
2023-05-06T04:31:58.188Z,7.98
2023-05-06T04:34:27.947Z,7.95
2023-05-06T04:36:58.216Z,7.93
2023-05-06T04:39:49.007Z,7.95
2023-05-06T04:42:17.135Z,7.99
2023-05-06T04:44:52.166Z,8.03
2023-05-06T04:47:21.279Z,8.06
2023-05-06T04:49:49.795Z,8.11
2023-05-06T04:52:17.203Z,8.28
2023-05-06T04:54:45.669Z,8.47
2023-05-06T04:57:13.138Z,8.58
2023-05-06T04:59:41.852Z,8.63
2023-05-06T05:02:09.129Z,8.65
2023-05-06T05:04:37.064Z,8.67
2023-05-06T05:07:04.321Z,8.70
2023-05-06T05:09:31.624Z,8.72
2023-05-06T05:11:58.525Z,8.77
2023-05-06T05:14:26.462Z,8.81
2023-05-06T05:16:53.509Z,8.82
2023-05-06T05:19:21.464Z,8.85
2023-05-06T05:21:49.346Z,8.85
2023-05-06T05:24:17.083Z,8.87
2023-05-06T05:26:43.886Z,8.91
2023-05-06T05:29:11.416Z,8.95
2023-05-06T05:31:38.535Z,8.99
2023-05-06T05:34:06.750Z,9.01
2023-05-06T05:36:33.795Z,9.04
2023-05-06T05:39:02.427Z,9.07
2023-05-06T05:41:29.957Z,9.12
2023-05-06T05:43:56.830Z,9.17
2023-05-06T05:46:24.018Z,9.23
2023-05-06T05:48:51.483Z,9.28
2023-05-06T05:51:18.523Z,9.33
2023-05-06T05:53:45.730Z,9.40
2023-05-06T05:56:13.321Z,9.47
2023-05-06T05:58:40.943Z,9.51
2023-05-06T06:01:08.503Z,9.52
2023-05-06T06:03:35.898Z,9.50
2023-05-06T06:06:02.954Z,9.56
2023-05-06T06:08:31.865Z,9.63
2023-05-06T06:10:59.250Z,9.67
2023-05-06T06:13:30.543Z,9.71
2023-05-06T06:15:58.674Z,9.75
2023-05-06T06:18:25.641Z,9.77
2023-05-06T06:20:53.498Z,9.81
2023-05-06T06:23:21.078Z,9.83
2023-05-06T06:25:48.036Z,9.85
2023-05-06T06:28:15.730Z,9.90
2023-05-06T06:30:43.790Z,9.94
2023-05-06T06:33:10.569Z,9.96
2023-05-06T06:35:37.360Z,9.98
2023-05-06T06:38:04.149Z,10.00
2023-05-06T06:40:31.132Z,10.04
2023-05-06T06:42:57.995Z,10.11
2023-05-06T06:45:51.176Z,10.16
2023-05-06T06:48:18.099Z,10.22
2023-05-06T06:50:45.194Z,10.31
2023-05-06T06:53:12.005Z,10.39
2023-05-06T06:55:38.857Z,10.42
2023-05-06T06:58:05.871Z,10.43
2023-05-06T07:00:32.823Z,10.49
2023-05-06T07:02:59.686Z,10.56
2023-05-06T07:05:27.483Z,10.66
2023-05-06T07:07:54.934Z,10.74
2023-05-06T07:10:22.348Z,10.80
2023-05-06T07:12:49.165Z,10.83
2023-05-06T07:15:15.999Z,10.86
2023-05-06T07:17:42.962Z,10.84
2023-05-06T07:20:10.672Z,10.87
2023-05-06T07:22:37.531Z,10.90
2023-05-06T07:25:04.674Z,10.92
2023-05-06T07:27:31.596Z,10.97
2023-05-06T07:29:58.477Z,11.03
2023-05-06T07:32:25.256Z,11.07
2023-05-06T07:34:52.075Z,11.09
2023-05-06T07:37:18.818Z,11.12
2023-05-06T07:39:45.687Z,11.10
2023-05-06T07:42:13.218Z,11.11
2023-05-06T07:44:40.255Z,11.14
2023-05-06T07:47:07.398Z,11.18
2023-05-06T07:49:35.263Z,11.19
2023-05-06T07:54:08.416Z,11.27
2023-05-06T07:56:35.517Z,11.32
2023-05-06T07:59:02.194Z,11.40
2023-05-06T08:01:28.985Z,11.47
2023-05-06T08:03:55.831Z,11.55
2023-05-06T08:06:22.904Z,11.60
2023-05-06T08:08:49.567Z,11.63
2023-05-06T08:11:17.491Z,11.68
2023-05-06T08:13:46.466Z,11.75
2023-05-06T08:16:13.124Z,11.83
2023-05-06T08:18:40.097Z,11.94
2023-05-06T08:21:06.657Z,12.04
2023-05-06T08:23:34.780Z,12.17
2023-05-06T08:26:01.470Z,12.30
2023-05-06T08:28:28.785Z,12.39
2023-05-06T08:30:55.449Z,12.48
2023-05-06T08:33:22.416Z,12.58
2023-05-06T08:35:50.226Z,12.68
2023-05-06T08:38:18.243Z,12.83
2023-05-06T08:40:44.948Z,12.95
2023-05-06T08:43:15.108Z,13.07
2023-05-06T08:45:42.114Z,13.21
2023-05-06T08:48:09.235Z,13.34
2023-05-06T08:50:42.545Z,13.47
2023-05-06T08:53:12.910Z,13.64
2023-05-06T08:55:42.940Z,13.87
2023-05-06T08:58:11.135Z,14.08
2023-05-06T09:00:37.882Z,14.27
2023-05-06T09:03:05.263Z,14.48
2023-05-06T09:05:31.848Z,14.69
2023-05-06T09:07:58.870Z,14.96
2023-05-06T09:10:30.982Z,15.29
2023-05-06T09:12:57.669Z,15.58
2023-05-06T09:15:25.911Z,15.90
2023-05-06T09:17:53.477Z,16.34
2023-05-06T09:20:20.228Z,16.89
2023-05-06T09:22:47.092Z,17.55
2023-05-06T09:25:13.737Z,18.31
2023-05-06T09:27:40.570Z,18.99
2023-05-06T09:30:08.971Z,19.59
2023-05-06T09:32:39.125Z,20.15
2023-05-06T09:35:08.228Z,20.59
2023-05-06T09:37:35.724Z,21.02
2023-05-06T09:40:02.645Z,21.41
2023-05-06T09:42:30.357Z,21.83
2023-05-06T09:45:01.374Z,22.18
2023-05-06T09:47:33.211Z,22.42
2023-05-06T09:50:02.795Z,22.79
2023-05-06T09:52:30.508Z,23.10
2023-05-06T09:54:57.161Z,23.49
2023-05-06T09:57:23.878Z,23.84
2023-05-06T09:59:51.628Z,24.15
2023-05-06T10:02:18.877Z,24.39
2023-05-06T10:04:45.865Z,24.53
2023-05-06T10:07:13.360Z,24.72
2023-05-06T10:09:40.587Z,24.99
2023-05-06T10:12:08.235Z,25.37
2023-05-06T10:14:37.240Z,25.75
2023-05-06T10:17:07.510Z,26.06
2023-05-06T10:19:34.348Z,26.32
2023-05-06T10:22:07.684Z,26.45
2023-05-06T10:24:40.185Z,26.64
2023-05-06T10:27:07.299Z,26.92
2023-05-06T10:29:35.218Z,27.11
2023-05-06T10:32:02.631Z,27.00
2023-05-06T10:34:31.831Z,27.04
2023-05-06T10:36:58.378Z,26.90
2023-05-06T10:39:25.497Z,26.95
2023-05-06T10:41:52.147Z,27.08
2023-05-06T10:44:46.584Z,27.23
2023-05-06T10:47:13.148Z,27.35
2023-05-06T10:49:39.655Z,27.48
2023-05-06T10:52:13.367Z,27.62
2023-05-06T10:54:49.988Z,27.31
2023-05-06T10:57:16.550Z,27.20
2023-05-06T10:59:46.355Z,27.43
2023-05-06T11:02:13.126Z,27.77
2023-05-06T11:04:39.972Z,27.97
2023-05-06T11:07:14.395Z,28.25
2023-05-06T11:10:13.423Z,28.50
2023-05-06T11:12:45.922Z,28.90
2023-05-06T11:15:43.075Z,29.22
2023-05-06T11:18:25.812Z,29.48
2023-05-06T11:20:59.784Z,29.52
2023-05-06T11:23:41.953Z,29.50
2023-05-06T11:26:09.408Z,29.44
2023-05-06T11:28:36.022Z,29.51
2023-05-06T11:31:02.715Z,29.77
2023-05-06T11:33:32.889Z,30.07
2023-05-06T11:36:00.018Z,30.33
2023-05-06T11:38:39.953Z,30.47
2023-05-06T11:41:06.710Z,30.35
2023-05-06T11:43:33.869Z,30.32
2023-05-06T11:46:00.539Z,30.53
2023-05-06T11:48:27.088Z,30.87
2023-05-06T11:50:53.983Z,31.02
2023-05-06T11:53:22.398Z,31.17
2023-05-06T11:55:51.040Z,31.07
2023-05-06T11:58:27.407Z,30.75
2023-05-06T12:00:58.469Z,30.72
2023-05-06T12:03:25.906Z,30.78
2023-05-06T12:05:52.895Z,30.90
2023-05-06T12:08:27.877Z,31.02
2023-05-06T12:10:56.115Z,31.17
2023-05-06T12:13:22.996Z,31.43
2023-05-06T12:15:49.793Z,31.68
2023-05-06T12:18:17.057Z,31.87
2023-05-06T12:20:43.634Z,31.94
2023-05-06T12:23:14.323Z,31.96
2023-05-06T12:25:42.174Z,31.97
2023-05-06T12:28:19.136Z,32.02
2023-05-06T12:30:45.917Z,32.09
2023-05-06T12:33:13.871Z,32.17
2023-05-06T12:35:40.675Z,32.39
2023-05-06T12:38:11.688Z,32.68
2023-05-06T12:40:38.643Z,32.76
2023-05-06T12:43:05.607Z,32.68
2023-05-06T12:45:32.300Z,32.64
2023-05-06T12:48:03.270Z,31.84
2023-05-06T12:50:31.245Z,30.57
2023-05-06T12:52:57.908Z,29.39
2023-05-06T12:55:27.296Z,28.31
2023-05-06T12:57:55.534Z,27.10
2023-05-06T13:00:23.422Z,25.94
2023-05-06T13:02:50.100Z,25.04
2023-05-06T13:05:16.830Z,24.10
2023-05-06T13:07:43.454Z,23.15
2023-05-06T13:10:10.917Z,22.28
2023-05-06T13:12:38.027Z,21.62
2023-05-06T13:15:05.197Z,21.13
2023-05-06T13:17:32.148Z,20.56
2023-05-06T13:19:58.766Z,20.00
2023-05-06T13:22:25.363Z,19.60
2023-05-06T13:24:52.962Z,19.25
2023-05-06T13:27:19.519Z,18.94
2023-05-06T13:29:46.060Z,18.60
2023-05-06T13:32:12.649Z,18.30
2023-05-06T13:34:39.397Z,18.01
2023-05-06T13:37:07.106Z,17.75
2023-05-06T13:39:34.513Z,17.47
2023-05-06T13:42:02.043Z,17.28
2023-05-06T13:44:29.126Z,17.10
2023-05-06T13:46:56.083Z,16.87
2023-05-06T13:49:22.692Z,16.59
2023-05-06T13:51:49.461Z,16.36
2023-05-06T13:54:16.193Z,16.12
2023-05-06T13:56:43.027Z,15.96
2023-05-06T13:59:11.194Z,15.82
2023-05-06T14:01:38.574Z,15.71
2023-05-06T14:04:05.356Z,15.62
2023-05-06T14:06:32.756Z,15.50
2023-05-06T14:08:59.770Z,15.39
2023-05-06T14:11:26.284Z,15.31
2023-05-06T14:13:53.461Z,15.23
2023-05-06T14:16:20.079Z,15.15
2023-05-06T14:18:46.986Z,15.12
2023-05-06T14:21:13.715Z,15.07
2023-05-06T14:23:40.342Z,15.03
2023-05-06T14:26:07.140Z,14.94
2023-05-06T14:28:34.006Z,14.80
2023-05-06T14:31:00.612Z,14.69
2023-05-06T14:33:27.188Z,14.61
2023-05-06T14:35:53.898Z,14.51
2023-05-06T14:38:20.393Z,14.44
2023-05-06T14:40:46.866Z,14.43
2023-05-06T14:43:13.831Z,14.42
2023-05-06T14:45:40.374Z,14.43
2023-05-06T14:48:06.956Z,14.39
2023-05-06T14:50:34.120Z,14.31
2023-05-06T14:53:02.949Z,14.21
2023-05-06T14:55:32.990Z,14.13
2023-05-06T14:57:59.746Z,14.04
2023-05-06T15:00:26.433Z,13.98
2023-05-06T15:02:53.293Z,13.89
2023-05-06T15:05:20.011Z,13.82
2023-05-06T15:07:46.769Z,13.79
2023-05-06T15:10:13.476Z,13.76
2023-05-06T15:12:40.414Z,13.73
2023-05-06T15:15:07.707Z,13.68
2023-05-06T15:17:34.492Z,13.60
2023-05-06T15:20:01.350Z,13.55
2023-05-06T15:22:28.194Z,13.52
2023-05-06T15:24:54.782Z,13.49
2023-05-06T15:27:21.412Z,13.47
2023-05-06T15:29:48.248Z,13.44
2023-05-06T15:32:14.780Z,13.42
2023-05-06T15:34:41.436Z,13.38
2023-05-06T15:37:08.124Z,13.34
2023-05-06T15:39:38.168Z,13.30
2023-05-06T15:42:05.652Z,13.27
2023-05-06T15:44:33.297Z,13.23
2023-05-06T15:47:00.418Z,13.19
2023-05-06T15:49:49.388Z,13.16
2023-05-06T15:52:14.020Z,13.12
2023-05-06T15:54:41.311Z,13.09
2023-05-06T15:57:08.129Z,13.04
2023-05-06T15:59:35.246Z,13.00
2023-05-06T16:04:32.869Z,12.88
2023-05-06T16:06:59.596Z,12.83
2023-05-06T16:09:26.216Z,12.79
2023-05-06T16:11:54.207Z,12.75
2023-05-06T16:14:20.975Z,12.74
2023-05-06T16:16:47.525Z,12.70
2023-05-06T16:19:14.054Z,12.68
2023-05-06T16:21:40.775Z,12.65
2023-05-06T16:24:08.087Z,12.63
2023-05-06T16:26:36.180Z,12.62
2023-05-06T16:29:02.969Z,12.60
2023-05-06T16:31:30.039Z,12.55
2023-05-06T16:33:56.844Z,12.50
2023-05-06T16:36:23.400Z,12.41
2023-05-06T16:38:50.082Z,12.36
2023-05-06T16:41:16.859Z,12.31
2023-05-06T16:43:43.529Z,12.26
2023-05-06T16:46:10.457Z,12.23
2023-05-06T16:48:38.032Z,12.19
2023-05-06T16:51:04.862Z,12.15
2023-05-06T16:53:31.731Z,12.11
2023-05-06T16:56:00.699Z,12.03
2023-05-06T16:58:29.590Z,11.91
2023-05-06T17:00:56.239Z,11.86
2023-05-06T17:03:22.911Z,11.80
2023-05-06T17:05:49.994Z,11.76
2023-05-06T17:08:16.604Z,11.74
2023-05-06T17:10:43.200Z,11.71
2023-05-06T17:13:10.022Z,11.65
2023-05-06T17:15:36.896Z,11.60
2023-05-06T17:18:03.624Z,11.58
2023-05-06T17:20:31.316Z,11.55
2023-05-06T17:22:57.994Z,11.50
2023-05-06T17:25:24.833Z,11.45
2023-05-06T17:27:51.483Z,11.41
2023-05-06T17:30:18.208Z,11.38
2023-05-06T17:32:44.931Z,11.37
2023-05-06T17:35:12.040Z,11.34
2023-05-06T17:37:39.220Z,11.30
2023-05-06T17:40:07.045Z,11.27
2023-05-06T17:42:36.021Z,11.24
2023-05-06T17:45:02.803Z,11.22
2023-05-06T17:47:30.226Z,11.20
2023-05-06T17:49:57.065Z,11.19
2023-05-06T17:52:26.192Z,11.17
2023-05-06T17:55:10.802Z,11.16
2023-05-06T17:57:39.944Z,11.13
2023-05-06T18:00:14.466Z,11.12
2023-05-06T18:02:45.154Z,11.09
2023-05-06T18:05:13.235Z,11.07
2023-05-06T18:07:41.884Z,11.05
2023-05-06T18:10:09.066Z,11.02
2023-05-06T18:12:36.296Z,10.99
2023-05-06T18:15:04.343Z,10.95
2023-05-06T18:17:31.752Z,10.91
2023-05-06T18:19:58.332Z,10.88
2023-05-06T18:22:25.027Z,10.85
2023-05-06T18:24:55.450Z,10.84
2023-05-06T18:27:23.180Z,10.81
2023-05-06T18:29:50.345Z,10.79
2023-05-06T18:32:17.456Z,10.77
2023-05-06T18:34:43.998Z,10.76
2023-05-06T18:37:10.682Z,10.73
2023-05-06T18:39:44.860Z,10.71
2023-05-06T18:42:11.383Z,10.69
2023-05-06T18:44:39.008Z,10.66
2023-05-06T18:47:05.967Z,10.64
2023-05-06T18:49:32.639Z,10.62
2023-05-06T18:51:59.402Z,10.61
2023-05-06T18:54:25.976Z,10.62
2023-05-06T18:56:58.167Z,10.62
2023-05-06T18:59:25.308Z,10.59
2023-05-06T19:01:53.247Z,10.62
2023-05-06T19:04:20.022Z,10.63
2023-05-06T19:06:46.679Z,10.63
2023-05-06T19:09:13.602Z,10.65
2023-05-06T19:11:40.227Z,10.66
2023-05-06T19:14:06.948Z,10.66
2023-05-06T19:16:33.810Z,10.67
2023-05-06T19:19:02.151Z,10.67
2023-05-06T19:21:29.109Z,10.65
2023-05-06T19:23:59.137Z,10.62
2023-05-06T19:26:29.237Z,10.61
2023-05-06T19:28:55.781Z,10.60
2023-05-06T19:31:22.804Z,10.60
2023-05-06T19:33:49.994Z,10.59
2023-05-06T19:36:16.713Z,10.57
2023-05-06T19:38:43.339Z,10.54
2023-05-06T19:41:10.344Z,10.50
2023-05-06T19:43:41.546Z,10.47
2023-05-06T19:46:08.851Z,10.44
2023-05-06T19:48:36.782Z,10.40
2023-05-06T19:51:04.191Z,10.35
2023-05-06T19:53:32.167Z,10.32
2023-05-06T19:56:06.843Z,10.31
2023-05-06T19:58:33.495Z,10.29
2023-05-06T20:01:00.314Z,10.28
2023-05-06T20:03:26.993Z,10.24
2023-05-06T20:05:54.190Z,10.21
2023-05-06T20:11:26.948Z,10.16
2023-05-06T20:13:53.870Z,10.12
2023-05-06T20:16:20.719Z,10.10
2023-05-06T20:18:48.393Z,10.08
2023-05-06T20:21:16.128Z,10.06
2023-05-06T20:23:42.877Z,10.03
2023-05-06T20:26:09.700Z,10.00
2023-05-06T20:28:39.227Z,9.96
2023-05-06T20:31:07.078Z,9.92
2023-05-06T20:33:34.085Z,9.88
2023-05-06T20:36:00.861Z,9.86
2023-05-06T20:38:30.256Z,9.85
2023-05-06T20:40:58.996Z,9.83
2023-05-06T20:43:25.933Z,9.80
2023-05-06T20:45:52.802Z,9.78
2023-05-06T20:48:19.849Z,9.75
2023-05-06T20:50:46.779Z,9.71
2023-05-06T20:53:13.680Z,9.67
2023-05-06T20:55:40.841Z,9.63
2023-05-06T20:58:08.013Z,9.62
2023-05-06T21:00:34.867Z,9.60
2023-05-06T21:03:02.141Z,9.58
2023-05-06T21:05:29.329Z,9.57
2023-05-06T21:07:56.103Z,9.54
2023-05-06T21:10:22.978Z,9.50
2023-05-06T21:12:50.941Z,9.46
2023-05-06T21:15:17.987Z,9.44
2023-05-06T21:17:45.077Z,9.42
2023-05-06T21:20:13.014Z,9.41
2023-05-06T21:22:40.139Z,9.39
2023-05-06T21:25:08.414Z,9.38
2023-05-06T21:27:35.991Z,9.37
2023-05-06T21:30:03.442Z,9.35
2023-05-06T21:32:33.327Z,9.35
2023-05-06T21:35:03.951Z,9.31
2023-05-06T21:37:30.783Z,9.25
2023-05-06T21:39:57.650Z,9.21
2023-05-06T21:42:24.414Z,9.13
2023-05-06T21:44:51.154Z,9.00
2023-05-06T21:47:17.900Z,8.88
2023-05-06T21:49:44.664Z,8.82
2023-05-06T21:52:11.537Z,8.79
2023-05-06T21:54:38.406Z,8.76
2023-05-06T21:57:08.164Z,8.74
2023-05-06T21:59:35.780Z,8.75
2023-05-06T22:02:03.520Z,8.75
2023-05-06T22:04:30.823Z,8.73
2023-05-06T22:06:57.678Z,8.71
2023-05-06T22:09:24.559Z,8.69
2023-05-06T22:11:51.953Z,8.68
2023-05-06T22:14:21.959Z,8.67
2023-05-06T22:16:52.805Z,8.65
2023-05-06T22:19:20.367Z,8.63
2023-05-06T22:21:47.339Z,8.63
2023-05-06T22:24:14.124Z,8.63
2023-05-06T22:26:40.987Z,8.62
2023-05-06T22:29:07.819Z,8.60
2023-05-06T22:31:34.679Z,8.58
2023-05-06T22:34:04.969Z,8.57
2023-05-06T22:36:33.682Z,8.57
2023-05-06T22:39:01.556Z,8.56
2023-05-06T22:41:29.706Z,8.55
2023-05-06T22:43:57.382Z,8.56
2023-05-06T22:46:24.228Z,8.57
2023-05-06T22:48:51.209Z,8.57
2023-05-06T22:51:17.924Z,8.56
2023-05-06T22:53:45.354Z,8.55
2023-05-06T22:56:12.146Z,8.55
2023-05-06T22:58:38.973Z,8.54
2023-05-06T23:01:07.471Z,8.53
2023-05-06T23:03:35.259Z,8.53
2023-05-06T23:06:03.958Z,8.54
2023-05-06T23:08:30.816Z,8.56
2023-05-06T23:10:57.550Z,8.56
2023-05-06T23:13:24.506Z,8.56
2023-05-06T23:15:52.037Z,8.55
2023-05-06T23:18:19.327Z,8.54
2023-05-06T23:20:46.105Z,8.53
2023-05-06T23:23:12.946Z,8.52
2023-05-06T23:25:39.763Z,8.51
2023-05-06T23:28:06.534Z,8.50
2023-05-06T23:30:33.830Z,8.48
2023-05-06T23:33:00.724Z,8.47
2023-05-06T23:35:27.598Z,8.45
2023-05-06T23:37:54.438Z,8.42
2023-05-06T23:40:21.246Z,8.40
2023-05-06T23:42:48.112Z,8.39
2023-05-06T23:45:14.985Z,8.39
2023-05-06T23:47:42.207Z,8.39
2023-05-06T23:50:09.708Z,8.41
2023-05-06T23:52:38.654Z,8.41
2023-05-06T23:55:06.216Z,8.42
2023-05-06T23:57:33.028Z,8.41
2023-05-06T23:59:59.828Z,8.42
